createdAt,value
2019-04-26T00:01:20.297Z,13.83
2019-04-26T00:03:50.823Z,19.07
2019-04-26T00:06:18.666Z,13.48
2019-04-26T00:08:47.357Z,10.68
2019-04-26T00:11:22.390Z,17.80
2019-04-26T00:14:12.379Z,14.83
2019-04-26T00:16:53.075Z,15.90
2019-04-26T00:19:20.117Z,11.35
2019-04-26T00:21:47.055Z,16.87
2019-04-26T00:24:15.175Z,14.35
2019-04-26T00:26:42.113Z,15.60
2019-04-26T00:29:08.862Z,17.92
2019-04-26T00:31:35.650Z,15.95
2019-04-26T00:34:02.836Z,14.85
2019-04-26T00:36:29.578Z,15.63
2019-04-26T00:38:56.374Z,14.28
2019-04-26T00:41:23.653Z,9.55
2019-04-26T00:43:50.996Z,14.30
2019-04-26T00:46:18.838Z,9.80
2019-04-26T00:48:47.036Z,17.10
2019-04-26T00:51:15.474Z,12.23
2019-04-26T00:53:45.569Z,9.90
2019-04-26T00:56:14.544Z,16.25
2019-04-26T00:58:43.662Z,13.60
2019-04-26T01:01:10.711Z,16.48
2019-04-26T01:03:37.601Z,12.05
2019-04-26T01:06:06.288Z,13.48
2019-04-26T01:08:32.960Z,14.70
2019-04-26T01:11:01.522Z,12.35
2019-04-26T01:13:28.260Z,12.85
2019-04-26T01:15:55.251Z,12.30
2019-04-26T01:18:22.311Z,12.03
2019-04-26T01:20:53.127Z,11.05
2019-04-26T01:23:21.445Z,15.45
2019-04-26T01:25:51.733Z,14.25
2019-04-26T01:28:21.980Z,17.57
2019-04-26T01:30:50.323Z,15.48
2019-04-26T01:33:18.634Z,12.55
2019-04-26T01:35:55.235Z,14.15
2019-04-26T01:38:22.067Z,15.88
2019-04-26T01:40:50.676Z,10.48
2019-04-26T01:43:20.058Z,14.55
2019-04-26T01:46:10.485Z,11.88
2019-04-26T01:48:46.881Z,16.57
2019-04-26T01:51:21.298Z,14.85
2019-04-26T01:53:50.876Z,14.60
2019-04-26T01:56:22.278Z,15.48
2019-04-26T01:58:49.579Z,12.90
2019-04-26T02:01:18.351Z,18.10
2019-04-26T02:03:45.358Z,19.07
2019-04-26T02:06:24.802Z,11.83
2019-04-26T02:08:41.027Z,14.07
2019-04-26T02:11:07.987Z,20.25
2019-04-26T02:13:34.780Z,15.72
2019-04-26T02:16:01.534Z,18.27
2019-04-26T02:18:29.395Z,19.12
2019-04-26T02:21:01.752Z,16.82
2019-04-26T02:23:37.817Z,16.40
2019-04-26T02:26:25.046Z,19.45
2019-04-26T02:28:52.573Z,14.73
2019-04-26T02:31:19.331Z,21.12
2019-04-26T02:33:46.670Z,15.08
2019-04-26T02:36:13.852Z,17.73
2019-04-26T02:38:40.676Z,15.38
2019-04-26T02:41:07.836Z,18.65
2019-04-26T02:43:37.313Z,16.97
2019-04-26T02:46:15.189Z,21.35
2019-04-26T02:48:47.374Z,18.42
2019-04-26T02:51:17.802Z,18.12
2019-04-26T02:53:53.956Z,13.58
2019-04-26T02:56:31.620Z,19.65
2019-04-26T02:59:11.563Z,19.67
2019-04-26T03:01:40.027Z,18.75
2019-04-26T03:04:06.889Z,17.87
2019-04-26T03:06:34.923Z,20.30
2019-04-26T03:09:06.292Z,15.30
2019-04-26T03:11:38.964Z,14.98
2019-04-26T03:14:11.063Z,16.25
2019-04-26T03:16:52.090Z,19.15
2019-04-26T03:19:26.945Z,17.07
2019-04-26T03:22:31.967Z,14.45
2019-04-26T03:25:22.200Z,15.48
2019-04-26T03:28:04.401Z,14.18
2019-04-26T03:33:10.709Z,18.80
2019-04-26T03:35:56.535Z,19.23
2019-04-26T03:38:50.128Z,18.67
2019-04-26T03:44:11.659Z,16.32
2019-04-26T03:46:43.821Z,18.55
2019-04-26T03:49:40.050Z,14.03
2019-04-26T03:52:23.187Z,19.02
2019-04-26T03:54:56.426Z,17.42
2019-04-26T03:57:49.764Z,14.68
2019-04-26T04:00:22.419Z,18.70
2019-04-26T04:03:00.556Z,21.20
2019-04-26T04:05:43.557Z,12.85
2019-04-26T04:08:13.839Z,19.50
2019-04-26T04:10:47.740Z,13.70
2019-04-26T04:13:40.547Z,18.82
2019-04-26T04:16:22.690Z,15.98
2019-04-26T04:19:01.690Z,21.73
2019-04-26T04:21:44.530Z,14.95
2019-04-26T04:24:15.195Z,14.73
2019-04-26T04:27:03.939Z,17.37
2019-04-26T04:29:50.605Z,23.52
2019-04-26T04:32:21.561Z,20.13
2019-04-26T04:34:54.471Z,15.85
2019-04-26T04:37:28.905Z,23.45
2019-04-26T04:40:13.187Z,20.10
2019-04-26T04:43:18.643Z,25.52
2019-04-26T04:46:05.904Z,24.40
2019-04-26T04:48:59.746Z,20.55
2019-04-26T04:52:00.501Z,18.48
2019-04-26T04:54:33.878Z,22.20
2019-04-26T04:57:19.465Z,19.67
2019-04-26T04:59:56.176Z,27.70
2019-04-26T05:02:48.661Z,19.15
2019-04-26T05:05:29.694Z,22.42
2019-04-26T05:08:06.698Z,21.37
2019-04-26T05:10:44.290Z,23.77
2019-04-26T05:13:14.778Z,21.57
2019-04-26T05:16:05.013Z,21.93
2019-04-26T05:19:28.253Z,17.27
2019-04-26T05:22:07.217Z,13.53
2019-04-26T05:24:53.264Z,16.67
2019-04-26T05:27:37.311Z,15.40
2019-04-26T05:30:10.259Z,25.82
2019-04-26T05:33:03.479Z,20.88
2019-04-26T05:35:57.353Z,16.05
2019-04-26T05:38:39.627Z,19.70
2019-04-26T05:41:34.485Z,17.98
2019-04-26T05:44:24.901Z,16.50
2019-04-26T05:47:38.441Z,18.82
2019-04-26T05:50:49.196Z,19.00
2019-04-26T05:53:58.348Z,16.07
2019-04-26T05:56:49.924Z,20.37
2019-04-26T05:59:33.454Z,15.38
2019-04-26T06:02:39.199Z,19.15
2019-04-26T06:05:20.420Z,19.52
2019-04-26T06:08:30.769Z,20.40
2019-04-26T06:11:08.474Z,19.37
2019-04-26T06:13:43.667Z,16.97
2019-04-26T06:16:24.433Z,15.78
2019-04-26T06:19:13.665Z,20.52
2019-04-26T06:22:02.686Z,20.02
2019-04-26T06:24:39.504Z,13.38
2019-04-26T06:27:40.488Z,18.15
2019-04-26T06:30:13.765Z,18.42
2019-04-26T06:32:56.228Z,20.27
2019-04-26T06:35:24.336Z,21.17
2019-04-26T06:38:17.304Z,21.17
2019-04-26T06:41:04.421Z,17.82
2019-04-26T06:43:39.290Z,14.95
2019-04-26T06:46:35.907Z,25.17
2019-04-26T06:49:16.600Z,24.70
2019-04-26T06:52:03.640Z,22.90
2019-04-26T06:54:56.386Z,22.77
2019-04-26T06:57:49.017Z,28.62
2019-04-26T07:00:22.467Z,28.52
2019-04-26T07:03:07.811Z,22.42
2019-04-26T07:05:41.108Z,22.02
2019-04-26T07:08:21.213Z,24.07
2019-04-26T07:11:10.335Z,21.95
2019-04-26T07:13:54.833Z,18.00
2019-04-26T07:16:28.192Z,28.30
2019-04-26T07:19:13.392Z,25.52
2019-04-26T07:22:17.908Z,28.47
2019-04-26T07:25:19.347Z,24.85
2019-04-26T07:28:06.095Z,27.17
2019-04-26T07:30:40.743Z,29.05
2019-04-26T07:33:48.063Z,25.70
2019-04-26T07:36:24.554Z,34.78
2019-04-26T07:39:20.389Z,29.20
2019-04-26T07:42:07.382Z,29.87
2019-04-26T07:45:02.652Z,24.63
2019-04-26T07:48:16.678Z,24.60
2019-04-26T07:51:04.399Z,33.40
2019-04-26T07:53:37.475Z,30.62
2019-04-26T07:56:20.234Z,30.12
2019-04-26T07:59:24.099Z,26.97
2019-04-26T08:02:21.955Z,31.15
2019-04-26T08:04:55.401Z,31.90
2019-04-26T08:07:32.035Z,30.15
2019-04-26T08:10:14.669Z,40.20
2019-04-26T08:12:45.094Z,32.15
2019-04-26T08:15:28.580Z,30.88
2019-04-26T08:18:00.392Z,27.75
2019-04-26T08:20:50.235Z,28.20
2019-04-26T08:23:37.906Z,36.03
2019-04-26T08:25:52.980Z,38.42
2019-04-26T08:28:22.975Z,37.78
2019-04-26T08:30:53.600Z,29.72
2019-04-26T08:33:25.877Z,44.85
2019-04-26T08:35:55.660Z,41.42
2019-04-26T08:38:23.553Z,29.37
2019-04-26T08:40:51.938Z,35.88
2019-04-26T08:43:20.943Z,31.73
2019-04-26T08:46:02.775Z,36.55
2019-04-26T08:48:42.263Z,43.15
2019-04-26T08:51:20.593Z,35.05
2019-04-26T08:53:50.905Z,41.83
2019-04-26T08:56:28.474Z,40.75
2019-04-26T08:58:58.871Z,35.48
2019-04-26T09:01:31.412Z,44.83
2019-04-26T09:04:02.888Z,41.77
2019-04-26T09:06:35.239Z,34.40
2019-04-26T09:09:07.523Z,32.70
2019-04-26T09:11:37.086Z,51.83
2019-04-26T09:14:05.027Z,44.95
2019-04-26T09:16:32.002Z,33.23
2019-04-26T09:18:59.702Z,43.35
2019-04-26T09:21:28.995Z,45.38
2019-04-26T09:24:08.283Z,41.80
2019-04-26T09:26:46.692Z,39.92
2019-04-26T09:29:22.225Z,37.70
2019-04-26T09:31:56.417Z,41.42
2019-04-26T09:34:25.094Z,36.45
2019-04-26T09:36:52.384Z,44.55
2019-04-26T09:39:20.056Z,43.15
2019-04-26T09:41:46.939Z,42.40
2019-04-26T09:44:30.466Z,32.25
2019-04-26T09:46:59.064Z,40.90
2019-04-26T09:49:44.364Z,33.70
2019-04-26T09:52:15.494Z,39.08
2019-04-26T09:54:42.248Z,38.38
2019-04-26T09:57:08.997Z,40.78
2019-04-26T09:59:36.345Z,31.40
2019-04-26T10:02:06.820Z,39.98
2019-04-26T10:04:33.617Z,31.50
2019-04-26T10:07:03.347Z,37.70
2019-04-26T10:09:30.918Z,34.58
2019-04-26T10:12:02.204Z,32.93
2019-04-26T10:14:30.939Z,41.60
2019-04-26T10:17:02.148Z,44.45
2019-04-26T10:19:31.751Z,35.98
2019-04-26T10:21:58.889Z,37.58
2019-04-26T10:24:25.558Z,34.20
2019-04-26T10:26:52.336Z,36.93
2019-04-26T10:29:21.779Z,42.43
2019-04-26T10:31:51.732Z,42.80
2019-04-26T10:34:16.502Z,41.13
2019-04-26T10:36:43.247Z,39.42
2019-04-26T10:39:12.378Z,33.13
2019-04-26T10:41:39.562Z,48.30
2019-04-26T10:44:06.324Z,34.23
2019-04-26T10:46:33.109Z,42.95
2019-04-26T10:49:08.595Z,36.17
2019-04-26T10:51:30.720Z,39.23
2019-04-26T10:54:05.965Z,40.60
2019-04-26T10:56:32.640Z,35.92
2019-04-26T10:59:06.068Z,35.83
2019-04-26T11:01:34.153Z,40.73
2019-04-26T11:04:00.809Z,49.63
2019-04-26T11:06:28.885Z,44.40
2019-04-26T11:08:55.988Z,36.93
2019-04-26T11:11:22.867Z,43.75
2019-04-26T11:13:50.127Z,49.53
2019-04-26T11:16:16.889Z,37.38
2019-04-26T11:18:43.635Z,42.23
2019-04-26T11:21:10.544Z,40.52
2019-04-26T11:23:37.325Z,41.77
2019-04-26T11:26:04.074Z,43.02
2019-04-26T11:28:30.988Z,42.53
2019-04-26T11:30:58.917Z,43.75
2019-04-26T11:33:25.572Z,40.90
2019-04-26T11:35:52.264Z,53.85
2019-04-26T11:38:21.637Z,39.40
2019-04-26T11:40:49.810Z,52.38
2019-04-26T11:43:19.569Z,39.23
2019-04-26T11:45:45.338Z,33.00
2019-04-26T11:48:13.597Z,44.35
2019-04-26T11:50:40.348Z,45.25
2019-04-26T11:53:10.172Z,49.98
2019-04-26T11:55:35.818Z,41.73
2019-04-26T11:58:02.686Z,47.23
2019-04-26T12:00:34.171Z,34.08
2019-04-26T12:03:03.154Z,41.28
2019-04-26T12:05:32.921Z,39.05
2019-04-26T12:08:13.460Z,46.30
2019-04-26T12:10:43.911Z,34.35
2019-04-26T12:13:08.920Z,35.35
2019-04-26T12:15:39.094Z,33.10
2019-04-26T12:18:05.476Z,40.83
2019-04-26T12:20:33.357Z,35.60
2019-04-26T12:23:00.162Z,43.55
2019-04-26T12:25:30.990Z,44.05
2019-04-26T12:27:57.399Z,43.15
2019-04-26T12:30:26.893Z,35.63
2019-04-26T12:32:53.667Z,35.43
2019-04-26T12:35:20.448Z,40.35
2019-04-26T12:37:50.644Z,30.05
2019-04-26T12:40:19.280Z,50.50
2019-04-26T12:42:47.328Z,37.58
2019-04-26T12:45:30.788Z,35.73
2019-04-26T12:47:59.475Z,36.15
2019-04-26T12:50:29.465Z,44.83
2019-04-26T12:52:56.032Z,36.93
2019-04-26T12:55:23.907Z,34.25
2019-04-26T12:57:50.759Z,33.75
2019-04-26T13:00:20.921Z,35.65
2019-04-26T13:02:50.079Z,38.05
2019-04-26T13:05:18.868Z,36.95
2019-04-26T13:07:47.069Z,32.30
2019-04-26T13:10:24.503Z,37.88
2019-04-26T13:12:53.270Z,42.33
2019-04-26T13:15:58.425Z,38.05
2019-04-26T13:18:25.201Z,25.35
2019-04-26T13:20:52.149Z,30.45
2019-04-26T13:23:19.210Z,38.48
2019-04-26T13:25:45.905Z,34.80
2019-04-26T13:28:15.701Z,35.30
2019-04-26T13:30:43.623Z,41.68
2019-04-26T13:33:10.109Z,28.30
2019-04-26T13:35:36.895Z,31.97
2019-04-26T13:38:05.090Z,33.58
2019-04-26T13:40:32.525Z,29.02
2019-04-26T13:42:59.363Z,28.87
2019-04-26T13:45:46.331Z,36.88
2019-04-26T13:48:20.832Z,27.48
2019-04-26T13:50:49.496Z,34.05
2019-04-26T13:53:16.234Z,34.50
2019-04-26T13:55:43.105Z,34.78
2019-04-26T13:58:09.887Z,37.03
2019-04-26T14:00:39.754Z,39.33
2019-04-26T14:03:05.495Z,30.50
2019-04-26T14:05:32.290Z,25.08
2019-04-26T14:07:59.091Z,32.38
2019-04-26T14:10:25.862Z,37.90
2019-04-26T14:12:52.633Z,28.20
2019-04-26T14:15:19.698Z,35.00
2019-04-26T14:17:46.528Z,33.67
2019-04-26T14:20:13.409Z,32.75
2019-04-26T14:22:42.392Z,35.38
2019-04-26T14:25:11.306Z,28.65
2019-04-26T14:27:40.020Z,31.45
2019-04-26T14:30:08.330Z,31.40
2019-04-26T14:32:35.121Z,27.62
2019-04-26T14:35:02.104Z,28.57
2019-04-26T14:37:30.100Z,27.37
2019-04-26T14:39:59.214Z,28.80
2019-04-26T14:42:38.309Z,30.15
2019-04-26T14:44:53.952Z,27.40
2019-04-26T14:47:20.781Z,23.35
2019-04-26T14:49:47.448Z,29.12
2019-04-26T14:52:17.229Z,25.68
2019-04-26T14:54:46.049Z,25.27
2019-04-26T14:57:19.928Z,33.42
2019-04-26T14:59:52.876Z,29.57
2019-04-26T15:02:43.286Z,25.10
2019-04-26T15:05:19.433Z,24.63
2019-04-26T15:07:50.920Z,17.25
2019-04-26T15:10:16.497Z,22.32
2019-04-26T15:12:46.914Z,26.57
2019-04-26T15:15:11.925Z,33.45
2019-04-26T15:17:38.855Z,24.30
2019-04-26T15:20:06.001Z,27.93
2019-04-26T15:22:33.552Z,29.55
2019-04-26T15:25:03.320Z,22.48
2019-04-26T15:27:32.223Z,27.87
2019-04-26T15:30:01.627Z,35.17
2019-04-26T15:32:28.006Z,27.48
2019-04-26T15:34:58.610Z,29.25
2019-04-26T15:37:28.316Z,23.87
2019-04-26T15:39:58.322Z,21.45
2019-04-26T15:42:35.563Z,23.70
2019-04-26T15:45:08.427Z,26.40
2019-04-26T15:47:53.621Z,22.07
2019-04-26T15:50:25.452Z,22.27
2019-04-26T15:52:52.512Z,23.90
2019-04-26T15:55:19.246Z,25.82
2019-04-26T15:57:46.020Z,22.65
2019-04-26T16:00:13.036Z,22.67
2019-04-26T16:02:42.577Z,21.30
2019-04-26T16:05:08.903Z,22.17
2019-04-26T16:07:36.863Z,21.75
2019-04-26T16:10:05.324Z,19.95
2019-04-26T16:12:32.238Z,23.00
2019-04-26T16:14:58.965Z,24.55
2019-04-26T16:17:25.927Z,28.85
2019-04-26T16:19:56.206Z,20.15
2019-04-26T16:22:22.029Z,24.20
2019-04-26T16:24:51.734Z,15.93
2019-04-26T16:27:20.401Z,21.62
2019-04-26T16:29:59.415Z,23.25
2019-04-26T16:32:43.248Z,23.10
2019-04-26T16:35:10.274Z,21.93
2019-04-26T16:37:37.041Z,19.15
2019-04-26T16:40:07.860Z,19.20
2019-04-26T16:42:35.617Z,18.85
2019-04-26T16:45:07.691Z,16.35
2019-04-26T16:47:35.429Z,17.90
2019-04-26T16:50:04.579Z,16.60
2019-04-26T16:52:33.686Z,19.05
2019-04-26T16:55:02.731Z,19.12
2019-04-26T16:57:28.652Z,12.53
2019-04-26T16:59:59.907Z,11.40
2019-04-26T17:02:26.494Z,13.90
2019-04-26T17:04:53.390Z,13.45
2019-04-26T17:07:25.400Z,13.88
2019-04-26T17:09:57.949Z,16.65
2019-04-26T17:12:17.620Z,10.20
2019-04-26T17:14:47.507Z,21.37
2019-04-26T17:17:14.243Z,18.87
2019-04-26T17:19:41.180Z,18.55
2019-04-26T17:22:15.322Z,17.25
2019-04-26T17:24:49.150Z,12.47
2019-04-26T17:27:17.839Z,17.82
2019-04-26T17:29:44.611Z,15.68
2019-04-26T17:32:15.534Z,20.68
2019-04-26T17:34:40.580Z,16.05
2019-04-26T17:37:12.720Z,17.85
2019-04-26T17:39:37.521Z,16.62
2019-04-26T17:42:04.270Z,12.78
2019-04-26T17:44:33.936Z,17.70
2019-04-26T17:47:01.959Z,17.20
2019-04-26T17:49:32.653Z,16.48
2019-04-26T17:51:59.822Z,14.73
2019-04-26T17:54:45.666Z,13.35
2019-04-26T17:56:55.175Z,14.47
2019-04-26T17:59:33.467Z,15.75
2019-04-26T18:01:57.322Z,12.70
2019-04-26T18:04:31.514Z,15.28
2019-04-26T18:06:57.797Z,16.93
2019-04-26T18:09:38.216Z,25.80
2019-04-26T18:11:44.903Z,14.40
2019-04-26T18:14:21.064Z,14.00
2019-04-26T18:16:42.751Z,14.73
2019-04-26T18:19:20.298Z,17.85
2019-04-26T18:21:59.624Z,13.83
2019-04-26T18:24:23.564Z,15.20
2019-04-26T18:26:52.266Z,10.30
2019-04-26T18:29:23.699Z,15.45
2019-04-26T18:31:49.341Z,10.05
2019-04-26T18:34:16.101Z,9.68
2019-04-26T18:36:43.050Z,11.80
2019-04-26T18:39:11.957Z,11.48
2019-04-26T18:41:39.889Z,9.85
2019-04-26T18:44:06.691Z,11.53
2019-04-26T18:46:47.311Z,8.95
2019-04-26T18:49:18.936Z,9.88
2019-04-26T18:51:48.271Z,10.20
2019-04-26T18:54:17.920Z,8.75
2019-04-26T18:56:46.711Z,9.23
2019-04-26T18:59:15.426Z,6.12
2019-04-26T19:01:42.284Z,7.58
2019-04-26T19:04:12.758Z,8.70
2019-04-26T19:06:38.096Z,6.62
2019-04-26T19:09:07.485Z,10.08
2019-04-26T19:11:35.719Z,12.55
2019-04-26T19:14:15.295Z,6.53
2019-04-26T19:17:02.010Z,10.28
2019-04-26T19:19:34.715Z,10.58
2019-04-26T19:22:03.477Z,11.60
2019-04-26T19:24:30.957Z,6.53
2019-04-26T19:26:57.637Z,10.50
2019-04-26T19:29:31.309Z,7.65
2019-04-26T19:31:56.599Z,5.00
2019-04-26T19:34:22.237Z,6.58
2019-04-26T19:36:52.326Z,8.10
2019-04-26T19:39:22.821Z,5.08
2019-04-26T19:41:53.621Z,8.15
2019-04-26T19:44:18.803Z,6.50
2019-04-26T19:47:06.614Z,5.60
2019-04-26T19:49:52.361Z,3.85
2019-04-26T19:52:22.163Z,7.05
2019-04-26T19:54:56.387Z,5.70
2019-04-26T19:57:41.054Z,4.60
2019-04-26T20:00:09.382Z,11.12
2019-04-26T20:02:39.295Z,7.62
2019-04-26T20:05:06.477Z,9.60
2019-04-26T20:07:35.160Z,8.00
2019-04-26T20:10:05.299Z,5.03
2019-04-26T20:12:35.268Z,10.45
2019-04-26T20:15:02.347Z,6.67
2019-04-26T20:17:29.335Z,7.60
2019-04-26T20:19:55.977Z,9.05
2019-04-26T20:22:28.362Z,5.67
2019-04-26T20:24:53.791Z,10.48
2019-04-26T20:27:20.572Z,6.78
2019-04-26T20:29:49.493Z,10.60
2019-04-26T20:32:21.120Z,8.05
2019-04-26T20:34:49.403Z,4.25
2019-04-26T20:37:22.877Z,5.42
2019-04-26T20:39:45.699Z,8.60
2019-04-26T20:42:12.705Z,6.65
2019-04-26T20:44:50.328Z,8.75
2019-04-26T20:47:14.443Z,8.10
2019-04-26T20:49:47.411Z,6.33
2019-04-26T20:52:05.382Z,8.80
2019-04-26T20:54:32.131Z,8.48
2019-04-26T20:56:58.783Z,8.00
2019-04-26T20:59:26.640Z,5.37
2019-04-26T21:02:03.463Z,8.05
2019-04-26T21:04:36.278Z,9.68
2019-04-26T21:06:53.484Z,8.23
2019-04-26T21:09:21.879Z,6.92
2019-04-26T21:11:48.967Z,7.22
2019-04-26T21:14:15.688Z,5.80
2019-04-26T21:16:45.298Z,7.33
2019-04-26T21:19:12.739Z,9.85
2019-04-26T21:21:41.977Z,6.22
2019-04-26T21:24:08.207Z,5.67
2019-04-26T21:26:46.621Z,4.28
2019-04-26T21:29:20.178Z,8.63
2019-04-26T21:32:05.397Z,6.50
2019-04-26T21:34:34.773Z,7.80
2019-04-26T21:37:22.302Z,8.78
2019-04-26T21:39:51.289Z,4.92
2019-04-26T21:42:21.025Z,5.90
2019-04-26T21:44:51.516Z,8.40
2019-04-26T21:47:15.298Z,7.60
2019-04-26T21:49:43.006Z,5.20
2019-04-26T21:52:09.905Z,5.55
2019-04-26T21:54:38.636Z,4.70
2019-04-26T21:57:05.248Z,10.05
2019-04-26T21:59:35.175Z,8.90
2019-04-26T22:02:00.472Z,7.40
2019-04-26T22:04:28.938Z,7.70
2019-04-26T22:06:59.828Z,8.33
2019-04-26T22:09:39.933Z,9.10
2019-04-26T22:12:08.477Z,12.68
2019-04-26T22:14:37.157Z,8.70
2019-04-26T22:17:06.061Z,6.90
2019-04-26T22:19:51.100Z,9.43
2019-04-26T22:22:20.142Z,7.35
2019-04-26T22:24:48.911Z,4.97
2019-04-26T22:27:17.371Z,4.70
2019-04-26T22:32:54.580Z,6.03
2019-04-26T22:35:21.370Z,5.80
2019-04-26T22:37:48.111Z,3.90
2019-04-26T22:40:19.596Z,7.22
2019-04-26T22:42:45.869Z,9.05
2019-04-26T22:45:17.860Z,9.83
2019-04-26T22:50:22.262Z,7.58
2019-04-26T22:52:51.537Z,3.90
2019-04-26T22:55:24.106Z,6.87
2019-04-26T22:57:56.705Z,3.60
2019-04-26T23:07:18.496Z,6.65
2019-04-26T23:09:51.338Z,4.62
2019-04-26T23:12:21.411Z,2.92
2019-04-26T23:14:59.903Z,7.83
2019-04-26T23:17:31.395Z,2.87
2019-04-26T23:19:58.860Z,1.82
2019-04-26T23:22:30.869Z,2.20
2019-04-26T23:24:57.911Z,1.32
2019-04-26T23:27:23.716Z,3.22
2019-04-26T23:29:55.057Z,3.52
2019-04-26T23:32:20.127Z,1.70
2019-04-26T23:34:47.170Z,3.15
2019-04-26T23:37:14.124Z,1.55
2019-04-26T23:39:42.935Z,3.70
2019-04-26T23:42:12.302Z,3.02
2019-04-26T23:44:40.210Z,0.72
2019-04-26T23:47:18.477Z,0.20
2019-04-26T23:49:34.927Z,2.67
2019-04-26T23:52:03.358Z,2.05
2019-04-26T23:54:32.344Z,1.20
2019-04-26T23:56:58.973Z,0.45
2019-04-26T23:59:26.724Z,0.72
